Time;durP1;ratioP1;P1;durP2;ratioP2;P2;SDS_P1;SDS_P2;PMS_P1;PMS_P2;Temp;Humidity;BMP_temperature;BMP_pressure;BME280_temperature;BME280_humidity;BME280_pressure;Samples;Min_cycle;Max_cycle;Signal;HPM_P1;HPM_P2
2021/09/13 00:01:08;;;;;;;7.03;6.53;;;;;;;19.75;76.17;95755.00;5013506;28;20210;-81
2021/09/13 00:03:34;;;;;;;6.45;5.85;;;;;;;19.80;75.97;95754.31;5013835;28;20277;-81
2021/09/13 00:06:01;;;;;;;6.60;5.97;;;;;;;19.80;76.12;95746.47;5013259;28;20215;-82
2021/09/13 00:08:27;;;;;;;6.43;5.82;;;;;;;19.86;75.89;95751.56;5013338;28;20206;-84
2021/09/13 00:10:54;;;;;;;6.32;5.72;;;;;;;19.81;75.87;95755.91;5013702;28;20210;-83
2021/09/13 00:13:22;;;;;;;6.50;5.90;;;;;;;19.69;76.75;95762.97;5010004;28;20195;-83
2021/09/13 00:15:49;;;;;;;6.50;5.90;;;;;;;19.64;76.64;95758.41;4993145;28;20247;-84
2021/09/13 00:18:17;;;;;;;6.32;5.82;;;;;;;19.55;77.17;95757.19;4994220;28;20203;-84
2021/09/13 00:20:43;;;;;;;6.68;6.15;;;;;;;19.47;77.51;95753.06;4993981;28;20204;-83
2021/09/13 00:23:10;;;;;;;6.18;5.68;;;;;;;19.38;78.20;95753.63;4994062;28;20223;-84
2021/09/13 00:25:36;;;;;;;6.50;6.00;;;;;;;19.43;77.91;95756.38;4993694;28;21010;-84
2021/09/13 00:28:03;;;;;;;7.10;6.50;;;;;;;19.45;78.09;95762.13;5010095;28;20210;-81
2021/09/13 00:30:29;;;;;;;7.57;6.22;;;;;;;19.41;78.63;95756.59;5014134;28;20258;-83
2021/09/13 00:32:56;;;;;;;6.63;6.13;;;;;;;19.42;78.30;95754.78;5013196;28;20199;-82
2021/09/13 00:35:25;;;;;;;7.10;6.40;;;;;;;19.48;78.16;95762.47;5012924;28;20230;-83
2021/09/13 00:37:51;;;;;;;6.30;5.80;;;;;;;19.56;77.75;95761.38;5013180;28;20210;-84
2021/09/13 00:40:18;;;;;;;6.70;6.10;;;;;;;19.64;77.65;95764.44;5016337;28;20674;-83
2021/09/13 00:42:44;;;;;;;5.97;5.47;;;;;;;19.72;77.13;95771.13;5016405;28;20218;-84
2021/09/13 00:45:12;;;;;;;6.32;5.70;;;;;;;19.79;76.76;95774.44;5016122;28;20225;-82
2021/09/13 00:47:38;;;;;;;6.45;5.95;;;;;;;19.77;76.55;95768.63;5016796;28;20207;-84
2021/09/13 00:50:05;;;;;;;7.45;5.90;;;;;;;19.73;76.43;95770.13;5016563;28;20566;-83
2021/09/13 00:52:34;;;;;;;8.68;5.70;;;;;;;19.76;76.25;95769.66;5015984;28;20206;-83
2021/09/13 00:55:01;;;;;;;6.15;5.63;;;;;;;19.72;76.45;95771.13;5016464;28;20737;-83
2021/09/13 00:57:28;;;;;;;6.38;5.88;;;;;;;19.61;76.98;95761.50;5015924;28;20218;-82
2021/09/13 00:59:55;;;;;;;7.03;6.43;;;;;;;19.56;77.66;95764.00;5016087;28;20206;-84
2021/09/13 01:02:21;;;;;;;6.80;6.20;;;;;;;19.56;77.76;95758.78;5016361;28;20240;-81
2021/09/13 01:04:48;;;;;;;6.18;5.70;;;;;;;19.57;77.63;95763.78;5015832;28;20229;-84
2021/09/13 01:07:15;;;;;;;6.68;6.05;;;;;;;19.58;78.02;95764.56;5016940;28;20210;-83
2021/09/13 01:09:43;;;;;;;6.82;5.82;;;;;;;19.55;77.62;95763.19;5016904;28;20202;-81
2021/09/13 01:12:10;;;;;;;6.95;6.28;;;;;;;19.58;77.44;95756.72;5017114;28;20210;-84
2021/09/13 01:14:37;;;;;;;5.97;5.47;;;;;;;19.63;77.38;95756.81;5015220;28;20195;-84
2021/09/13 01:17:04;;;;;;;6.65;6.05;;;;;;;19.61;77.12;95762.28;5014828;28;20241;-86
2021/09/13 01:19:30;;;;;;;6.40;5.90;;;;;;;19.61;77.02;95764.91;5015763;28;20207;-84
2021/09/13 01:21:59;;;;;;;6.15;5.65;;;;;;;19.61;77.17;95756.28;5015514;28;20213;-81
2021/09/13 01:24:28;;;;;;;7.20;6.47;;;;;;;19.57;77.20;95755.94;5014966;28;20230;-85
2021/09/13 01:26:59;;;;;;;7.15;6.45;;;;;;;19.44;77.76;95750.91;5015079;28;20207;-82
2021/09/13 01:29:26;;;;;;;6.88;6.28;;;;;;;19.48;77.47;95753.84;5015677;28;20701;-83
2021/09/13 01:31:52;;;;;;;6.47;5.97;;;;;;;19.38;77.97;95741.38;5015270;28;20198;-83
2021/09/13 01:34:18;;;;;;;6.25;5.75;;;;;;;19.42;77.84;95750.34;5014724;28;20206;-82
2021/09/13 01:36:45;;;;;;;5.88;5.38;;;;;;;19.46;78.07;95750.66;5014790;28;20220;-84
2021/09/13 01:39:11;;;;;;;6.00;5.43;;;;;;;19.51;77.33;95756.03;5015405;28;20202;-84
2021/09/13 01:41:39;;;;;;;6.72;6.03;;;;;;;19.50;77.32;95754.44;5014766;28;20207;-81
2021/09/13 01:44:06;;;;;;;6.60;6.10;;;;;;;19.52;76.90;95747.19;5014689;28;20219;-84
2021/09/13 01:46:32;;;;;;;6.30;5.80;;;;;;;19.46;76.76;95753.28;5015386;28;20219;-82
2021/09/13 01:48:59;;;;;;;6.68;5.97;;;;;;;19.37;76.97;95750.22;5015646;28;20885;-84
2021/09/13 01:51:25;;;;;;;6.55;5.95;;;;;;;19.38;77.37;95751.81;5014433;28;20208;-83
2021/09/13 01:53:52;;;;;;;7.15;5.68;;;;;;;19.39;77.02;95755.22;5015077;28;20203;-84
2021/09/13 01:56:18;;;;;;;6.45;5.78;;;;;;;19.34;77.37;95748.06;5014578;28;20229;-83
2021/09/13 01:58:46;;;;;;;6.28;5.68;;;;;;;19.23;78.00;95746.25;5014732;28;20232;-82
2021/09/13 02:01:13;;;;;;;5.78;5.25;;;;;;;19.24;77.53;95750.47;5014839;28;20202;-82
2021/09/13 02:03:39;;;;;;;6.72;5.65;;;;;;;19.26;77.15;95743.97;5014580;28;20230;-83
2021/09/13 02:06:05;;;;;;;6.30;5.80;;;;;;;19.27;76.87;95744.75;5013888;28;20250;-82
2021/09/13 02:08:32;;;;;;;6.47;5.97;;;;;;;19.25;76.77;95745.00;5014085;28;20206;-83
2021/09/13 02:10:58;;;;;;;7.05;5.95;;;;;;;19.26;76.54;95746.56;5014768;28;20290;-83
2021/09/13 02:13:25;;;;;;;6.25;5.53;;;;;;;19.18;76.46;95744.31;5014342;28;20223;-83
2021/09/13 02:15:53;;;;;;;7.60;5.93;;;;;;;19.19;76.31;95745.13;5012830;28;20653;-83
2021/09/13 02:18:19;;;;;;;6.05;5.43;;;;;;;19.09;76.52;95743.06;5014120;28;20211;-82
2021/09/13 02:20:46;;;;;;;5.95;5.30;;;;;;;19.11;75.99;95746.22;5014021;28;20213;-83
2021/09/13 02:23:12;;;;;;;6.00;5.50;;;;;;;19.12;76.39;95747.03;5014413;28;20223;-83
2021/09/13 02:25:39;;;;;;;6.03;5.53;;;;;;;19.12;76.04;95740.00;5014670;28;20234;-84
2021/09/13 02:28:05;;;;;;;6.22;5.65;;;;;;;19.03;76.15;95745.78;5015429;28;20202;-81
2021/09/13 02:30:32;;;;;;;6.70;5.50;;;;;;;19.02;76.23;95742.38;5014215;28;20198;-84
2021/09/13 02:33:00;;;;;;;5.80;5.25;;;;;;;18.91;76.76;95750.97;5014532;28;20203;-82
2021/09/13 02:35:26;;;;;;;7.40;5.68;;;;;;;18.87;77.24;95752.44;5013390;28;20218;-84
2021/09/13 02:37:54;;;;;;;5.50;5.00;;;;;;;18.83;77.46;95751.31;5014794;28;20210;-84
2021/09/13 02:40:20;;;;;;;6.03;5.53;;;;;;;18.82;77.77;95747.91;5014302;28;20199;-84
2021/09/13 02:42:48;;;;;;;5.93;5.35;;;;;;;18.88;76.92;95747.00;5013449;28;20710;-82
2021/09/13 02:45:15;;;;;;;5.80;5.40;;;;;;;18.88;76.57;95739.16;5013587;28;20863;-83
2021/09/13 02:47:42;;;;;;;5.82;5.18;;;;;;;18.91;76.69;95746.53;5014740;28;20214;-84
2021/09/13 02:50:12;;;;;;;5.30;4.90;;;;;;;18.98;76.13;95736.81;5019078;28;20191;-85
2021/09/13 02:52:39;;;;;;;5.50;5.00;;;;;;;19.02;75.60;95731.94;5017477;28;20203;-81
2021/09/13 02:55:07;;;;;;;8.90;5.13;;;;;;;19.07;75.41;95734.66;5018431;28;20230;-83
2021/09/13 02:57:34;;;;;;;5.13;4.72;;;;;;;19.06;75.17;95734.88;5006877;28;20219;-83
2021/09/13 03:00:00;;;;;;;5.70;5.15;;;;;;;19.01;75.16;95732.97;4998684;28;20195;-84
2021/09/13 03:02:27;;;;;;;5.68;5.13;;;;;;;19.03;75.09;95728.31;4998520;28;20222;-83
2021/09/13 03:04:53;;;;;;;5.10;4.70;;;;;;;19.06;74.79;95737.47;4998629;28;20227;-84
2021/09/13 03:07:21;;;;;;;5.10;4.57;;;;;;;19.04;74.53;95732.50;5007598;28;20210;-84
2021/09/13 03:09:48;;;;;;;5.13;4.72;;;;;;;18.95;74.80;95726.03;5018058;28;20274;-85
2021/09/13 03:12:14;;;;;;;5.03;4.63;;;;;;;18.90;75.06;95729.28;5017948;28;20631;-81
2021/09/13 03:14:41;;;;;;;5.65;5.15;;;;;;;18.88;75.66;95727.94;5016788;28;20195;-84
2021/09/13 03:17:07;;;;;;;5.30;4.80;;;;;;;18.80;75.71;95736.09;5015504;28;20323;-84
2021/09/13 03:19:34;;;;;;;5.95;5.18;;;;;;;18.81;75.74;95733.25;5016664;28;20603;-84
2021/09/13 03:22:00;;;;;;;5.28;4.78;;;;;;;18.82;75.91;95742.69;5015890;28;20677;-82
2021/09/13 03:24:28;;;;;;;5.10;4.70;;;;;;;18.79;75.53;95737.91;5014901;28;20222;-85
2021/09/13 03:26:54;;;;;;;5.30;4.80;;;;;;;18.78;75.37;95740.75;5014921;28;20205;-82
2021/09/13 03:29:21;;;;;;;5.07;4.35;;;;;;;18.74;75.41;95736.97;5015211;28;20198;-83
2021/09/13 03:31:47;;;;;;;5.78;4.90;;;;;;;18.68;75.28;95732.66;5015524;28;20222;-85
2021/09/13 03:34:13;;;;;;;5.30;4.72;;;;;;;18.69;75.08;95735.03;5016141;28;20201;-84
2021/09/13 03:36:40;;;;;;;5.45;4.95;;;;;;;18.54;75.58;95734.63;5015650;28;20252;-84
2021/09/13 03:39:07;;;;;;;4.82;4.32;;;;;;;18.57;75.58;95740.19;5015356;28;20202;-81
2021/09/13 03:41:35;;;;;;;22.88;20.92;;;;;;;18.58;75.69;95741.78;5016129;28;20210;-83
2021/09/13 03:44:02;;;;;;;5.28;4.78;;;;;;;18.61;75.36;95735.38;5015911;28;20226;-84
2021/09/13 03:46:28;;;;;;;4.75;4.35;;;;;;;18.57;75.33;95739.41;5016797;28;20227;-83
2021/09/13 03:48:55;;;;;;;4.97;4.57;;;;;;;18.52;75.54;95736.66;5017479;28;20210;-83
2021/09/13 03:51:21;;;;;;;4.53;4.15;;;;;;;18.47;75.63;95736.56;5016633;28;20199;-83
2021/09/13 03:53:48;;;;;;;6.15;4.75;;;;;;;18.46;75.83;95738.38;5016668;28;20194;-84
2021/09/13 03:56:14;;;;;;;5.63;4.88;;;;;;;18.42;76.09;95737.22;5016060;28;20238;-83
2021/09/13 03:58:42;;;;;;;5.00;4.40;;;;;;;18.38;76.45;95727.44;5016659;28;20214;-84
2021/09/13 04:01:11;;;;;;;5.47;4.97;;;;;;;18.41;76.72;95733.00;5016477;28;20207;-86
2021/09/13 04:03:44;;;;;;;5.70;5.20;;;;;;;18.41;76.99;95737.44;5013631;28;20223;-83
2021/09/13 04:06:18;;;;;;;6.45;5.03;;;;;;;18.35;76.97;95733.88;5013838;28;20932;-83
2021/09/13 04:09:05;;;;;;;17.00;15.60;;;;;;;18.33;77.13;95720.28;4995038;28;20203;-82
2021/09/13 04:11:39;;;;;;;6.10;5.60;;;;;;;18.39;77.34;95726.41;4993889;28;20211;-84
2021/09/13 04:14:07;;;;;;;6.53;5.45;;;;;;;18.45;76.97;95728.94;5003840;28;20199;-84
2021/09/13 04:16:33;;;;;;;5.97;5.47;;;;;;;18.48;77.02;95727.69;5017181;28;20235;-82
2021/09/13 04:19:00;;;;;;;5.93;5.43;;;;;;;18.52;76.66;95721.00;5017500;28;20215;-83
2021/09/13 04:21:26;;;;;;;6.22;5.30;;;;;;;18.55;76.45;95717.97;5017723;28;20206;-82
2021/09/13 04:23:53;;;;;;;5.47;4.90;;;;;;;18.60;75.70;95716.31;5017701;28;20246;-84
2021/09/13 04:26:19;;;;;;;5.65;5.15;;;;;;;18.57;75.43;95721.16;5017077;28;20321;-84
2021/09/13 04:28:46;;;;;;;6.43;4.50;;;;;;;18.55;75.47;95717.97;5016940;28;20700;-81
2021/09/13 04:31:14;;;;;;;8.30;5.70;;;;;;;18.53;75.29;95723.41;5017219;28;20203;-86
2021/09/13 04:33:41;;;;;;;5.63;5.13;;;;;;;18.55;74.81;95717.97;5016034;28;20249;-85
2021/09/13 04:36:08;;;;;;;7.78;4.65;;;;;;;18.40;74.35;95715.78;5015744;28;20709;-82
2021/09/13 04:38:34;;;;;;;34.38;30.77;;;;;;;18.32;75.10;95716.06;5015437;28;20241;-84
2021/09/13 04:41:01;;;;;;;10.65;9.65;;;;;;;18.26;75.54;95719.59;5018468;28;20576;-84
2021/09/13 04:43:27;;;;;;;6.13;5.60;;;;;;;18.25;75.45;95721.41;5017583;28;20214;-84
2021/09/13 04:45:53;;;;;;;5.45;4.60;;;;;;;18.18;75.70;95712.84;5018116;28;20230;-83
2021/09/13 04:48:21;;;;;;;5.38;4.88;;;;;;;18.09;76.43;95706.34;5017858;28;20207;-83
2021/09/13 04:50:48;;;;;;;5.07;4.68;;;;;;;18.13;76.53;95714.53;5018422;28;20213;-83
2021/09/13 04:53:14;;;;;;;6.90;6.25;;;;;;;18.18;75.96;95714.66;5018941;28;20206;-82
2021/09/13 04:55:41;;;;;;;5.75;4.93;;;;;;;18.15;75.84;95713.28;5018393;28;20218;-83
2021/09/13 04:58:07;;;;;;;5.07;4.63;;;;;;;18.17;75.96;95715.69;5002118;28;20211;-84
2021/09/13 05:00:33;;;;;;;5.10;4.60;;;;;;;18.25;75.60;95716.19;5001474;28;20230;-84
2021/09/13 05:03:00;;;;;;;5.32;4.82;;;;;;;18.24;75.17;95713.78;5018123;28;20203;-84
2021/09/13 05:05:28;;;;;;;6.55;4.57;;;;;;;18.22;75.18;95715.81;5018289;28;20231;-82
2021/09/13 05:07:54;;;;;;;7.13;5.35;;;;;;;18.09;75.66;95719.38;5017950;28;20215;-84
2021/09/13 05:10:21;;;;;;;7.13;6.03;;;;;;;17.94;76.21;95713.75;5018655;28;20576;-81
2021/09/13 05:12:47;;;;;;;7.20;6.60;;;;;;;17.66;77.66;95722.09;5017913;28;20203;-84
2021/09/13 05:15:14;;;;;;;7.03;6.32;;;;;;;17.58;78.69;95712.72;5017183;28;20290;-84
2021/09/13 05:17:40;;;;;;;6.82;5.95;;;;;;;17.60;79.10;95720.31;5017100;28;20209;-85
2021/09/13 05:20:08;;;;;;;9.60;5.90;;;;;;;17.73;78.31;95727.22;5017242;28;20207;-82
2021/09/13 05:22:46;;;;;;;5.97;5.53;;;;;;;17.88;77.32;95725.88;5018829;28;20202;-83
2021/09/13 05:25:12;;;;;;;6.82;5.97;;;;;;;17.98;76.87;95724.53;5017859;28;20230;-83
2021/09/13 05:27:39;;;;;;;7.20;5.93;;;;;;;18.01;76.60;95721.50;5016906;28;20209;-82
2021/09/13 05:30:09;;;;;;;6.78;5.75;;;;;;;18.05;76.68;95731.28;5017685;28;20203;-84
2021/09/13 05:32:36;;;;;;;9.23;5.97;;;;;;;18.11;76.38;95730.38;5017524;28;20202;-84
2021/09/13 05:35:03;;;;;;;15.05;6.32;;;;;;;18.17;76.43;95739.94;5017832;28;20817;-84
2021/09/13 05:37:29;;;;;;;14.13;6.47;;;;;;;18.19;76.51;95737.91;5018118;28;20210;-82
2021/09/13 05:39:58;;;;;;;11.65;6.72;;;;;;;18.24;76.91;95732.84;5017512;28;20206;-84
2021/09/13 05:42:29;;;;;;;8.35;6.22;;;;;;;18.35;76.10;95736.50;5017943;28;20268;-84
2021/09/13 05:44:56;;;;;;;7.13;6.30;;;;;;;18.37;76.12;95731.84;5017907;28;20279;-83
2021/09/13 05:47:26;;;;;;;9.27;6.28;;;;;;;18.39;76.07;95729.03;5017661;28;20206;-83
2021/09/13 05:49:53;;;;;;;11.02;6.68;;;;;;;18.44;76.33;95735.19;5017037;28;20199;-83
2021/09/13 05:52:19;;;;;;;14.35;6.93;;;;;;;18.46;76.60;95737.56;5018358;28;20198;-82
2021/09/13 05:54:46;;;;;;;10.85;6.85;;;;;;;18.53;76.45;95738.25;5016767;28;20206;-83
2021/09/13 05:57:14;;;;;;;8.43;6.60;;;;;;;18.60;76.53;95731.97;5017166;28;20655;-84
2021/09/13 05:59:40;;;;;;;9.98;7.25;;;;;;;18.62;76.84;95742.19;5018246;28;20207;-85
2021/09/13 06:02:07;;;;;;;7.95;6.68;;;;;;;18.69;76.70;95740.25;5017460;28;20210;-84
2021/09/13 06:04:33;;;;;;;8.02;7.22;;;;;;;18.78;76.32;95738.13;5017364;28;20226;-82
2021/09/13 06:07:01;;;;;;;8.30;7.10;;;;;;;18.84;76.23;95738.03;5016588;28;20214;-82
2021/09/13 06:09:28;;;;;;;9.32;7.13;;;;;;;18.91;75.82;95743.13;5016495;28;20198;-82
2021/09/13 06:11:55;;;;;;;7.43;6.55;;;;;;;18.91;76.11;95743.13;5016605;28;20206;-84
2021/09/13 06:14:23;;;;;;;7.53;6.88;;;;;;;18.95;75.89;95745.09;5011407;28;20474;-84
2021/09/13 06:16:52;;;;;;;7.70;7.00;;;;;;;19.03;75.71;95740.56;5015613;28;20263;-84
2021/09/13 06:19:21;;;;;;;8.35;7.45;;;;;;;19.03;75.58;95738.75;5014987;28;20203;-83
2021/09/13 06:21:49;;;;;;;7.38;6.63;;;;;;;19.05;75.79;95752.34;5014172;28;20213;-80
2021/09/13 06:24:16;;;;;;;7.63;6.70;;;;;;;19.14;75.62;95751.00;5014441;28;20233;-81
2021/09/13 06:26:44;;;;;;;9.90;7.03;;;;;;;19.23;74.77;95751.47;5015093;28;20234;-84
2021/09/13 06:29:11;;;;;;;7.85;7.15;;;;;;;19.32;74.85;95752.72;5017143;28;20202;-83
2021/09/13 06:31:39;;;;;;;7.43;6.70;;;;;;;19.41;74.57;95748.75;5016690;28;20207;-82
2021/09/13 06:34:06;;;;;;;8.02;7.22;;;;;;;19.51;74.00;95756.84;5015988;28;20213;-83
2021/09/13 06:36:35;;;;;;;8.23;7.05;;;;;;;19.65;73.45;95760.00;5014674;28;20231;-82
2021/09/13 06:39:02;;;;;;;8.48;7.20;;;;;;;19.76;73.21;95764.44;5016707;28;20658;-81
2021/09/13 06:41:28;;;;;;;10.05;7.07;;;;;;;19.76;73.29;95763.63;5016268;28;20754;-81
2021/09/13 06:43:55;;;;;;;7.55;6.75;;;;;;;19.84;72.96;95768.50;5017301;28;20210;-83
2021/09/13 06:46:24;;;;;;;7.75;7.07;;;;;;;19.95;72.06;95770.31;5016791;28;20233;-82
2021/09/13 06:48:58;;;;;;;7.30;6.60;;;;;;;20.05;71.36;95769.72;5016049;28;20203;-81
2021/09/13 06:51:24;;;;;;;7.50;6.80;;;;;;;20.12;70.95;95765.16;5015649;28;20206;-82
2021/09/13 06:53:54;;;;;;;7.50;6.90;;;;;;;20.17;70.61;95765.25;5015948;28;20198;-83
2021/09/13 06:56:20;;;;;;;6.78;6.18;;;;;;;20.27;70.59;95758.41;5013761;28;20280;-83
2021/09/13 06:58:47;;;;;;;7.18;6.45;;;;;;;20.34;70.24;95766.91;5009064;28;20601;-82
2021/09/13 07:01:16;;;;;;;8.13;6.75;;;;;;;20.52;70.14;95768.56;5015673;28;20828;-82
2021/09/13 07:03:43;;;;;;;7.80;6.95;;;;;;;20.59;68.98;95768.44;5015142;28;20199;-83
2021/09/13 07:06:10;;;;;;;7.18;6.45;;;;;;;20.64;69.17;95766.69;5014305;28;20326;-82
2021/09/13 07:08:37;;;;;;;7.50;6.78;;;;;;;20.64;69.81;95769.31;5015438;28;20207;-82
2021/09/13 07:11:07;;;;;;;12.27;6.68;;;;;;;20.63;70.31;95772.16;5015248;28;20207;-84
2021/09/13 07:13:33;;;;;;;20.38;7.22;;;;;;;20.81;69.76;95773.78;5014258;28;20207;-81
2021/09/13 07:16:00;;;;;;;13.93;6.85;;;;;;;21.01;69.00;95768.88;5013512;28;20238;-84
2021/09/13 07:18:29;;;;;;;20.83;6.75;;;;;;;21.17;68.60;95772.53;5014756;28;20619;-82
2021/09/13 07:20:55;;;;;;;10.43;6.25;;;;;;;21.20;68.50;95772.09;5014449;28;20214;-82
2021/09/13 07:23:23;;;;;;;10.90;6.97;;;;;;;21.22;68.04;95776.06;5014942;28;20207;-82
2021/09/13 07:25:50;;;;;;;9.60;6.38;;;;;;;21.45;68.20;95772.50;5014538;28;20237;-82
2021/09/13 07:28:16;;;;;;;11.95;6.88;;;;;;;21.52;67.19;95777.56;5015040;28;20213;-82
2021/09/13 07:30:43;;;;;;;10.98;7.10;;;;;;;21.77;66.35;95785.78;5015129;28;20207;-82
2021/09/13 07:33:09;;;;;;;7.78;6.75;;;;;;;21.93;65.90;95781.56;5014937;28;20210;-81
2021/09/13 07:35:35;;;;;;;6.15;5.60;;;;;;;22.22;65.85;95782.97;5013753;28;20219;-82
2021/09/13 07:38:05;;;;;;;6.50;6.00;;;;;;;22.35;65.14;95787.84;5014389;28;20214;-83
2021/09/13 07:40:35;;;;;;;7.15;6.47;;;;;;;22.57;63.83;95789.66;5013844;28;20206;-81
2021/09/13 07:43:03;;;;;;;7.38;6.10;;;;;;;22.75;63.58;95789.31;5015081;28;20276;-81
2021/09/13 07:45:29;;;;;;;6.00;5.38;;;;;;;22.90;62.55;95786.88;5014327;28;20257;-80
2021/09/13 07:47:56;;;;;;;6.75;6.15;;;;;;;22.99;61.89;95787.22;5014482;28;20266;-83
2021/09/13 07:50:23;;;;;;;7.32;6.28;;;;;;;23.22;61.40;95788.75;5014951;28;20927;-84
2021/09/13 07:52:49;;;;;;;6.75;6.15;;;;;;;23.43;60.02;95788.66;5015781;28;20245;-83
2021/09/13 07:55:17;;;;;;;8.07;6.53;;;;;;;23.58;60.25;95790.59;5015275;28;20230;-82
2021/09/13 07:57:46;;;;;;;7.93;7.13;;;;;;;23.41;59.19;95788.09;5015408;28;20579;-83
2021/09/13 08:00:14;;;;;;;7.55;6.57;;;;;;;23.49;60.16;95789.44;5014902;28;20217;-84
2021/09/13 08:02:40;;;;;;;7.85;7.00;;;;;;;23.73;59.01;95789.91;5014705;28;20206;-84
2021/09/13 08:05:08;;;;;;;8.35;7.65;;;;;;;23.91;58.23;95791.31;5014691;28;20314;-83
2021/09/13 08:07:35;;;;;;;8.35;7.55;;;;;;;23.91;57.34;95794.75;5014340;28;20727;-81
2021/09/13 08:10:02;;;;;;;8.48;7.68;;;;;;;24.07;56.82;95804.28;5014620;28;20210;-83
2021/09/13 08:12:28;;;;;;;9.15;7.10;;;;;;;24.24;57.13;95801.53;5014210;28;20202;-82
2021/09/13 08:14:57;;;;;;;8.75;7.95;;;;;;;24.19;56.60;95803.31;5014776;28;20243;-84
2021/09/13 08:17:27;;;;;;;11.05;7.60;;;;;;;24.24;55.96;95801.53;5015693;28;20206;-83
2021/09/13 08:20:07;;;;;;;9.00;7.38;;;;;;;24.16;57.26;95801.97;5015541;28;20218;-84
2021/09/13 08:22:35;;;;;;;9.82;8.25;;;;;;;24.03;56.99;95797.97;5015593;28;20217;-83
2021/09/13 08:25:04;;;;;;;8.75;7.65;;;;;;;23.97;57.06;95800.84;5014804;28;20226;-85
2021/09/13 08:27:31;;;;;;;9.70;7.38;;;;;;;23.95;57.05;95805.56;5015726;28;20247;-82
2021/09/13 08:29:59;;;;;;;7.68;6.97;;;;;;;24.01;57.04;95805.34;5014895;28;20826;-84
2021/09/13 08:32:26;;;;;;;8.93;7.10;;;;;;;23.95;57.38;95806.34;5015429;28;20209;-83
2021/09/13 08:34:53;;;;;;;7.22;6.57;;;;;;;23.87;57.62;95801.56;5015424;28;20231;-83
2021/09/13 08:37:24;;;;;;;9.10;6.53;;;;;;;23.82;58.07;95806.81;5014119;28;20597;-83
2021/09/13 08:39:52;;;;;;;7.60;5.78;;;;;;;23.96;57.86;95807.94;5014534;28;20207;-84
2021/09/13 08:42:20;;;;;;;5.63;5.13;;;;;;;23.57;55.19;95809.25;5014622;28;20634;-83
2021/09/13 08:44:58;;;;;;;4.93;4.43;;;;;;;23.44;57.09;95807.84;5013838;28;20202;-81
2021/09/13 08:47:34;;;;;;;4.80;4.40;;;;;;;23.38;58.34;95808.84;5013737;28;20213;-83
2021/09/13 08:50:09;;;;;;;4.60;4.20;;;;;;;23.73;57.86;95816.19;5014577;28;20622;-83
2021/09/13 08:52:36;;;;;;;4.88;4.43;;;;;;;24.16;56.21;95816.97;5014075;28;20210;-82
2021/09/13 08:55:02;;;;;;;5.47;4.97;;;;;;;24.44;54.02;95817.38;5013622;28;20237;-84
2021/09/13 08:57:31;;;;;;;5.85;5.35;;;;;;;24.59;54.66;95816.66;5013905;28;20214;-83
2021/09/13 08:59:58;;;;;;;5.97;5.30;;;;;;;24.50;53.06;95818.19;5014659;28;20199;-80
2021/09/13 09:02:27;;;;;;;5.45;5.03;;;;;;;24.37;54.08;95829.22;5017737;28;20199;-83
2021/09/13 09:04:55;;;;;;;5.70;5.07;;;;;;;24.64;53.28;95829.03;5017312;28;20227;-83
2021/09/13 09:07:23;;;;;;;5.40;5.00;;;;;;;24.84;53.56;95830.91;5018509;28;20303;-83
2021/09/13 09:10:09;;;;;;;5.35;4.75;;;;;;;25.16;51.69;95833.41;5017827;28;20205;-83
2021/09/13 09:12:55;;;;;;;5.95;4.47;;;;;;;25.23;52.46;95824.16;5017310;28;20202;-83
2021/09/13 09:15:22;;;;;;;5.18;4.65;;;;;;;25.17;53.68;95833.13;5015002;28;20318;-82
2021/09/13 09:17:53;;;;;;;6.03;4.70;;;;;;;25.56;52.66;95833.41;5017685;28;20612;-83
2021/09/13 09:20:19;;;;;;;7.53;4.97;;;;;;;25.80;52.00;95829.19;5017678;28;20194;-83
2021/09/13 09:22:46;;;;;;;4.43;4.03;;;;;;;25.86;50.73;95826.53;5017413;28;20234;-83
2021/09/13 09:25:27;;;;;;;5.93;4.10;;;;;;;26.11;50.27;95821.22;5016193;28;20735;-83
2021/09/13 09:27:57;;;;;;;4.15;3.85;;;;;;;26.38;50.04;95820.88;5016678;28;20209;-83
2021/09/13 09:30:35;;;;;;;4.10;3.80;;;;;;;26.51;48.45;95822.16;5017608;28;20206;-82
2021/09/13 09:33:06;;;;;;;3.90;3.60;;;;;;;26.48;49.11;95821.63;5017193;28;20213;-81
2021/09/13 09:35:46;;;;;;;3.95;3.50;;;;;;;26.66;48.57;95814.16;4997756;28;20318;-84
2021/09/13 09:38:32;;;;;;;4.88;4.45;;;;;;;26.07;48.79;95820.16;5003621;28;20201;-84
2021/09/13 09:41:06;;;;;;;4.43;4.03;;;;;;;26.04;50.14;95818.84;5016023;28;20203;-83
2021/09/13 09:43:54;;;;;;;5.20;4.00;;;;;;;26.00;50.36;95820.44;5017608;28;20861;-86
2021/09/13 09:46:24;;;;;;;5.25;4.68;;;;;;;25.21;51.09;95825.50;5016941;28;20226;-84
2021/09/13 09:49:03;;;;;;;5.10;4.60;;;;;;;24.77;52.17;95818.81;5017534;28;20210;-84
2021/09/13 09:51:32;;;;;;;4.30;3.85;;;;;;;24.55;54.15;95820.06;5017529;28;20206;-82
2021/09/13 09:54:09;;;;;;;4.32;4.03;;;;;;;24.60;53.76;95823.50;5017050;28;20210;-84
2021/09/13 09:56:35;;;;;;;3.92;3.63;;;;;;;24.97;53.67;95822.56;5016306;28;20222;-84
2021/09/13 09:59:05;;;;;;;4.22;3.92;;;;;;;25.29;53.42;95812.56;5016733;28;20202;-83
2021/09/13 10:01:33;;;;;;;4.53;4.13;;;;;;;25.26;52.31;95818.38;4998457;28;20208;-84
2021/09/13 10:04:20;;;;;;;5.30;4.20;;;;;;;25.14;52.49;95807.31;4996824;28;20204;-84
2021/09/13 10:06:49;;;;;;;4.30;4.00;;;;;;;24.86;52.77;95807.75;5015735;28;20252;-84
2021/09/13 10:09:16;;;;;;;4.30;3.78;;;;;;;24.97;53.98;95806.75;5016892;28;20209;-84
2021/09/13 10:11:44;;;;;;;4.75;3.72;;;;;;;24.88;53.59;95800.38;5015730;28;20678;-84
2021/09/13 10:14:13;;;;;;;4.10;3.80;;;;;;;24.73;54.74;95806.41;5015824;28;20206;-82
2021/09/13 10:16:41;;;;;;;5.47;4.95;;;;;;;24.55;54.00;95796.34;5016185;28;20896;-84
2021/09/13 10:19:08;;;;;;;4.22;3.92;;;;;;;24.44;55.69;95803.41;5016688;28;20207;-84
2021/09/13 10:21:36;;;;;;;4.40;4.03;;;;;;;24.25;56.33;95800.44;5015647;28;20218;-85
2021/09/13 10:24:05;;;;;;;4.05;3.75;;;;;;;24.15;56.51;95797.75;5015152;28;20202;-85
2021/09/13 10:26:32;;;;;;;4.07;3.78;;;;;;;24.16;56.89;95801.97;5015333;28;20235;-83
2021/09/13 10:29:19;;;;;;;5.10;4.60;;;;;;;24.22;56.06;95793.06;5016136;28;20199;-85
2021/09/13 10:32:01;;;;;;;4.57;4.18;;;;;;;24.43;57.12;95792.13;5015328;28;20666;-84
2021/09/13 10:34:32;;;;;;;4.43;4.03;;;;;;;24.72;55.64;95796.94;5014794;28;20213;-83
2021/09/13 10:37:06;;;;;;;5.93;4.10;;;;;;;24.77;55.45;95795.09;5015326;28;20203;-84
2021/09/13 10:39:54;;;;;;;4.20;3.80;;;;;;;24.93;55.71;95795.13;5014968;28;20233;-83
2021/09/13 10:42:40;;;;;;;4.82;4.43;;;;;;;25.16;54.31;95791.22;5015493;28;20203;-84
2021/09/13 10:45:27;;;;;;;4.43;4.05;;;;;;;25.20;55.16;95789.66;5014480;28;20235;-85
2021/09/13 10:48:17;;;;;;;4.50;4.10;;;;;;;25.20;54.22;95781.75;5015713;28;20667;-83
2021/09/13 10:50:46;;;;;;;5.22;4.35;;;;;;;25.03;54.72;95784.63;5009856;28;20270;-84
2021/09/13 10:53:32;;;;;;;4.60;4.20;;;;;;;24.63;55.29;95782.69;5014013;28;20199;-84
2021/09/13 10:56:01;;;;;;;5.03;4.53;;;;;;;24.40;55.32;95787.38;5014448;28;20269;-82
2021/09/13 10:58:44;;;;;;;5.00;4.60;;;;;;;24.41;54.92;95775.00;5017081;28;20203;-82
2021/09/13 11:01:21;;;;;;;4.75;4.35;;;;;;;24.67;55.65;95781.09;5016769;28;20198;-83
2021/09/13 11:04:03;;;;;;;5.10;4.70;;;;;;;24.79;54.45;95779.03;5016225;28;20213;-84
2021/09/13 11:06:45;;;;;;;5.40;4.90;;;;;;;24.69;53.56;95771.09;5017118;28;20234;-84
2021/09/13 11:09:18;;;;;;;4.75;4.40;;;;;;;24.79;53.42;95768.50;5015320;28;20207;-84
2021/09/13 11:11:46;;;;;;;7.55;4.70;;;;;;;24.80;53.20;95767.47;5014704;28;20286;-83
2021/09/13 11:14:16;;;;;;;5.35;4.30;;;;;;;24.84;53.16;95770.34;5004840;28;20195;-84
2021/09/13 11:16:45;;;;;;;5.28;4.80;;;;;;;24.68;53.67;95770.31;4995162;28;20351;-84
2021/09/13 11:19:13;;;;;;;4.65;4.25;;;;;;;24.71;54.11;95764.53;5001579;28;20213;-84
2021/09/13 11:21:43;;;;;;;4.60;4.20;;;;;;;24.93;54.15;95768.78;5014564;28;20617;-84
2021/09/13 11:24:12;;;;;;;4.85;4.45;;;;;;;24.99;53.67;95765.94;5014177;28;20209;-84
2021/09/13 11:26:42;;;;;;;5.45;4.68;;;;;;;25.00;52.98;95761.44;5013841;28;20239;-85
2021/09/13 11:29:10;;;;;;;5.30;4.45;;;;;;;25.11;52.89;95752.47;5014765;28;20217;-83
2021/09/13 11:31:39;;;;;;;5.22;4.50;;;;;;;25.16;52.75;95757.75;5014917;28;20214;-82
2021/09/13 11:34:19;;;;;;;4.95;4.50;;;;;;;24.88;53.73;95753.75;5014882;28;20210;-84
2021/09/13 11:36:56;;;;;;;4.65;4.25;;;;;;;24.86;53.91;95757.69;5014943;28;20254;-84
2021/09/13 11:39:23;;;;;;;6.75;5.00;;;;;;;25.05;53.05;95754.31;5014745;28;20206;-83